Aktuální počasí v Česku a ve světě - METAR

Seznam meteostanic umístěných nejčasteji na letišti v ČR a ve světě

Vyhledat místa podle abecedy:
A B C D E F G H I J K L M N O P Q R S T U V W X Y Z

Filtrovat:

ID stanice:
a/nebo
Název místa (fulltext):
 
Místo (ID)Naposledy načteno 
Brno - Tuřany (Brno/Tu) 12.08.2020 03:00 UTC Zobrazit data
Místo: Brno - Tuřany
Teplota: 17 °C (pocitová: 16.6 °C)
Vítr: 1 m/s z(e) 220°
Počasí: slunečno
Dohlednost: 25 km
Zákl. oblačnosti: N/A
Vlhkost: 88%
Červená - Opava (Cervena/uL) 12.08.2020 03:00 UTC Zobrazit data
Místo: Červená - Opava
Teplota: 17 °C (pocitová: 14.9 °C)
Vítr: 4 m/s z(e) 20°
Počasí:
Dohlednost: 26 km
Zákl. oblačnosti: N/A
Vlhkost: 88%
České Budějovice (C.Budej/po) 12.08.2020 03:00 UTC Zobrazit data
Místo: České Budějovice
Teplota: 17 °C (pocitová: 16.6 °C)
Vítr: 1 m/s z(e) 160°
Počasí: skorojasno
Dohlednost: 16 km
Zákl. oblačnosti: 1/8 5400 m
Vlhkost: 88%
Cheb (Cheb) 12.08.2020 03:00 UTC Zobrazit data
Místo: Cheb
Teplota: 15 °C (pocitová: 14.1 °C)
Vítr: 1 m/s z(e) 0°
Počasí: zataženo
Dohlednost: 2700 m
Zákl. oblačnosti: 2/8 9000 m
Vlhkost: 100%
Chotusice - Čáslav (Caslav) 12.08.2020 03:00 UTC Zobrazit data
Místo: Chotusice - Čáslav
Teplota: 16 °C (pocitová: 15.3 °C)
Vítr: 1 m/s z(e) 230°
Počasí: slunečno
Dohlednost: 15 km
Zákl. oblačnosti: N/A
Vlhkost: 94%
Churáňov (Churanov) 12.08.2020 03:00 UTC Zobrazit data
Místo: Churáňov
Teplota: 16 °C (pocitová: 15.3 °C)
Vítr: 1 m/s z(e) 110°
Počasí: skorojasno
Dohlednost: 35 km
Zákl. oblačnosti: 2/8 7500 m
Vlhkost: 77%
Doksany - Litoměřice (Doksany) 12.08.2020 03:00 UTC Zobrazit data
Místo: Doksany - Litoměřice
Teplota: 16 °C (pocitová: 23.1 °C)
Vítr: 0 m/s z(e) 0°
Počasí:
Dohlednost: 1600 m
Zákl. oblačnosti: N/A
Vlhkost: 100%
Dukovany (Dukovany) 12.08.2020 03:00 UTC Zobrazit data
Místo: Dukovany
Teplota: 16 °C (pocitová: 14 °C)
Vítr: 3 m/s z(e) 350°
Počasí:
Dohlednost: 19 km
Zákl. oblačnosti: N/A
Vlhkost: 88%
Holešov (Holesov) 12.08.2020 03:00 UTC Zobrazit data
Místo: Holešov
Teplota: 14 °C (pocitová: 12.9 °C)
Vítr: 1 m/s z(e) 120°
Počasí:
Dohlednost: 16 km
Zákl. oblačnosti: N/A
Vlhkost: 94%
Kadaň - Tušimice (Tusimice) 12.08.2020 03:00 UTC Zobrazit data
Místo: Kadaň - Tušimice
Teplota: 16 °C (pocitová: 15.3 °C)
Vítr: 1 m/s z(e) 0°
Počasí:
Dohlednost: 20 km
Zákl. oblačnosti: N/A
Vlhkost: 94%
Karlovy Vary (K.Vary) 12.08.2020 03:00 UTC Zobrazit data
Místo: Karlovy Vary
Teplota: 13 °C (pocitová: 10.8 °C)
Vítr: 2 m/s z(e) 80°
Počasí: slunečno
Dohlednost: 30 km
Zákl. oblačnosti: N/A
Vlhkost: 100%
Kocelovice (Kocelovice) 12.08.2020 03:00 UTC Zobrazit data
Místo: Kocelovice
Teplota: 15 °C (pocitová: 14.1 °C)
Vítr: 1 m/s z(e) 270°
Počasí: skoro zataženo
Dohlednost: 800 m
Zákl. oblačnosti: 6/8 9000 m
Vlhkost: 100%
Kopisty (Kopisty) 11.08.2020 21:00 UTC Zobrazit data
Místo: Kopisty
Teplota: 18 °C (pocitová: 24.3 °C)
Vítr: 0 m/s z(e) 0°
Počasí: skorojasno
Dohlednost: 23 km
Zákl. oblačnosti: 1/8 9000 m
Vlhkost: 94%
Kostelní Myslová (K.Myslova) 12.08.2020 03:00 UTC Zobrazit data
Místo: Kostelní Myslová
Teplota: 15 °C (pocitová: 13.3 °C)
Vítr: 2 m/s z(e) 0°
Počasí:
Dohlednost: 18 km
Zákl. oblačnosti: N/A
Vlhkost: 88%
Křešín - Kramolín (Kramolin) 12.08.2020 03:00 UTC Zobrazit data
Místo: Křešín - Kramolín
Teplota: 15 °C (pocitová: 14.1 °C)
Vítr: 1 m/s z(e) 0°
Počasí:
Dohlednost: 13 km
Zákl. oblačnosti: N/A
Vlhkost: 94%
Kuchařovice - Znojmo (Kucharovic) 12.08.2020 03:00 UTC Zobrazit data
Místo: Kuchařovice - Znojmo
Teplota: 16 °C (pocitová: 14 °C)
Vítr: 3 m/s z(e) 10°
Počasí:
Dohlednost: 13 km
Zákl. oblačnosti: N/A
Vlhkost: 94%
Liberec (Liberec) 12.08.2020 03:00 UTC Zobrazit data
Místo: Liberec
Teplota: 15 °C (pocitová: 14.1 °C)
Vítr: 1 m/s z(e) 50°
Počasí: zataženo
Dohlednost: 8 km
Zákl. oblačnosti: N/A
Vlhkost: 94%
Luká (Luka) 12.08.2020 03:00 UTC Zobrazit data
Místo: Luká
Teplota: 17 °C (pocitová: 15.9 °C)
Vítr: 2 m/s z(e) 10°
Počasí:
Dohlednost: 17 km
Zákl. oblačnosti: N/A
Vlhkost: 83%
Lysá Hora (Lysa Hora) 12.08.2020 03:00 UTC Zobrazit data
Místo: Lysá Hora
Teplota: 15 °C (pocitová: 12.2 °C)
Vítr: 4 m/s z(e) 90°
Počasí:
Dohlednost: 35 km
Zákl. oblačnosti: N/A
Vlhkost: 68%
Milešovka (Milesovka) 12.08.2020 03:00 UTC Zobrazit data
Místo: Milešovka
Teplota: 16 °C (pocitová: 12.4 °C)
Vítr: 8 m/s z(e) 130°
Počasí: skorojasno
Dohlednost: 50 km
Zákl. oblačnosti: 1/8 7200 m
Vlhkost: 88%
Mošnov (Ostrava/Mo) 12.08.2020 03:00 UTC Zobrazit data
Místo: Mošnov
Teplota: 15 °C (pocitová: 13.3 °C)
Vítr: 2 m/s z(e) 210°
Počasí: slunečno
Dohlednost: 12 km
Zákl. oblačnosti: N/A
Vlhkost: 94%
Náměšť nad Oslavou (Namest n/O) 12.08.2020 03:00 UTC Zobrazit data
Místo: Náměšť nad Oslavou
Teplota: 16 °C (pocitová: 14 °C)
Vítr: 3 m/s z(e) 290°
Počasí: slunečno
Dohlednost: 15 km
Zákl. oblačnosti: N/A
Vlhkost: 88%
Pardubice (Pardubice) 12.08.2020 03:00 UTC Zobrazit data
Místo: Pardubice
Teplota: 16 °C (pocitová: 15.3 °C)
Vítr: 1 m/s z(e) 40°
Počasí: slunečno
Dohlednost: 15 km
Zákl. oblačnosti: N/A
Vlhkost: 94%
Pec pod Sněžkou (Pec p.Snez) 12.08.2020 03:00 UTC Zobrazit data
Místo: Pec pod Sněžkou
Teplota: 13 °C (pocitová: 21.2 °C)
Vítr: 0 m/s z(e) 0°
Počasí:
Dohlednost: 19 km
Zákl. oblačnosti: N/A
Vlhkost: 94%
Plzeň město - Mikulka (Plzen/Miku) 12.08.2020 01:00 UTC Zobrazit data
Místo: Plzeň město - Mikulka
Teplota: 16 °C (pocitová: 15.3 °C)
Vítr: 1 m/s z(e) 10°
Počasí: zataženo
Dohlednost: 2500 m
Zákl. oblačnosti: 2/8 60 m
Vlhkost: 100%
Polom (Polom) 12.08.2020 03:00 UTC Zobrazit data
Místo: Polom
Teplota: 19 °C (pocitová: 18 °C)
Vítr: 3 m/s z(e) 90°
Počasí: slunečno
Dohlednost: 30 km
Zákl. oblačnosti: N/A
Vlhkost: 73%
Praha - Karlov (Praha/Kar) 12.08.2020 03:00 UTC Zobrazit data
Místo: Praha - Karlov
Teplota: 17 °C (pocitová: 15.9 °C)
Vítr: 2 m/s z(e) 220°
Počasí: zataženo
Dohlednost: 4700 m
Zákl. oblačnosti: N/A
Vlhkost: 100%
Praha - Kbely (Praha/Kbe) 12.08.2020 03:00 UTC Zobrazit data
Místo: Praha - Kbely
Teplota: 17 °C (pocitová: 23.7 °C)
Vítr: 0 m/s z(e) 0°
Počasí: slunečno
Dohlednost: 10 km
Zákl. oblačnosti: N/A
Vlhkost: 100%
Praha - Libuš (Praha/Lib) 12.08.2020 03:00 UTC Zobrazit data
Místo: Praha - Libuš
Teplota: 16 °C (pocitová: 15.3 °C)
Vítr: 1 m/s z(e) 0°
Počasí: mlha
Dohlednost: 500 m
Zákl. oblačnosti: 3/8 30 m
Vlhkost: 100%
Praha - Ruzyně (Praha/Ru) 12.08.2020 03:00 UTC Zobrazit data
Místo: Praha - Ruzyně
Teplota: 16 °C (pocitová: 15.3 °C)
Vítr: 1 m/s z(e) 280°
Počasí: skorojasno
Dohlednost: 20 km
Zákl. oblačnosti: 1/8 9000 m
Vlhkost: 88%
Přibyslav (Pribyslav) 12.08.2020 03:00 UTC Zobrazit data
Místo: Přibyslav
Teplota: 14 °C (pocitová: 12.9 °C)
Vítr: 1 m/s z(e) 0°
Počasí: zataženo
Dohlednost: 6 km
Zákl. oblačnosti: N/A
Vlhkost: 94%
Přimda (Primda) 12.08.2020 03:00 UTC Zobrazit data
Místo: Přimda
Teplota: 17 °C (pocitová: 15.3 °C)
Vítr: 3 m/s z(e) 100°
Počasí:
Dohlednost: 27 km
Zákl. oblačnosti: N/A
Vlhkost: 83%
Šerák (Serak) 12.08.2020 03:00 UTC Zobrazit data
Místo: Šerák
Teplota: 14 °C (pocitová: 10.4 °C)
Vítr: 5 m/s z(e) 110°
Počasí:
Dohlednost: 35 km
Zákl. oblačnosti: N/A
Vlhkost: 82%
Svratouch (Svratouch) 12.08.2020 03:00 UTC Zobrazit data
Místo: Svratouch
Teplota: 17 °C (pocitová: 15.3 °C)
Vítr: 3 m/s z(e) 130°
Počasí:
Dohlednost: 35 km
Zákl. oblačnosti: N/A
Vlhkost: 73%
Temelín (Temelin) 12.08.2020 03:00 UTC Zobrazit data
Místo: Temelín
Teplota: 18 °C (pocitová: 17.8 °C)
Vítr: 1 m/s z(e) 270°
Počasí:
Dohlednost: 26 km
Zákl. oblačnosti: N/A
Vlhkost: 88%
Ústí nad Labem - Kočkov (Usti n/L) 12.08.2020 03:00 UTC Zobrazit data
Místo: Ústí nad Labem - Kočkov
Teplota: 19 °C (pocitová: 18.5 °C)
Vítr: 2 m/s z(e) 70°
Počasí:
Dohlednost: 35 km
Zákl. oblačnosti: N/A
Vlhkost: 68%
Ústí nad Orlicí (Usti n/O) 12.08.2020 03:00 UTC Zobrazit data
Místo: Ústí nad Orlicí
Teplota: 15 °C (pocitová: 14.1 °C)
Vítr: 1 m/s z(e) 0°
Počasí:
Dohlednost: 10 km
Zákl. oblačnosti: N/A
Vlhkost: 100%
Aalborg (EKYT) 12.08.2020 00:50 UTC Zobrazit METAR
EKYT 120050Z AUTO 08006KT 9999 FEW065/// SCT085/// 16/16 Q1023
Aarhus (EKAH) 09.08.2020 08:50 UTC Zobrazit METAR
EKAH 090850Z 32003KT CAVOK 26/16 Q1022
Abu Dhabi (OMAA) 12.08.2020 03:00 UTC Zobrazit METAR
OMAA 120300Z VRB02KT CAVOK 34/31 Q0998 NOSIG
Abuja (DNAA) 12.08.2020 03:00 UTC Zobrazit METAR
DNAA 120300Z 10002KT 9999 FEW008 22/20 Q1015 NOSIG
Accra (DGAA) 12.08.2020 03:00 UTC Zobrazit METAR
DGAA 120300Z 23006KT FEW008 23/23 Q1013 NOSIG
Addis Abeba (HAAB) 12.08.2020 02:00 UTC Zobrazit METAR
HAAB 120200Z 27006KT 9999 BKN025 15/13 Q1025
Agana (PGUM) 12.08.2020 02:54 UTC Zobrazit METAR
PGUM 120254Z 17012KT 6SM HZ SCT013 BKN019 BKN025 28/24 A2989 RMK AO2 SLP115 T02830244 56008
Ahe Island (NTHE) Zatím nenačteno  
Akureyri (BIAR) 12.08.2020 03:00 UTC Zobrazit METAR
BIAR 120300Z 18016KT 160V220 9999 FEW059 14/08 Q1013
Almaty (UAAA) Zatím nenačteno  
Amman (OJAM) 12.08.2020 03:00 UTC Zobrazit METAR
OJAM 120300Z 28005KT 6000 NSC 20/17 Q1011 NOSIG
Amsterdam (EHAM) 12.08.2020 02:55 UTC Zobrazit METAR
EHAM 120255Z 07003KT 030V090 CAVOK 22/18 Q1014 NOSIG
Antananarivo (FMMI) 12.08.2020 03:00 UTC Zobrazit METAR
FMMI 120300Z 10003KT 9999 FEW020 08/07 Q1023 NOSIG
1 2 3 ... 9 Další
Reklama

Počasí na Váš email

Emaily jsou bez reklamy a bez spamu



Odhlásit newsletter




Další české internetové stránky (nejen) o počasí najdete v katalogu TOPlist - weby o počasí nebo vyhledejte na internetu, co jste tu na 🌞 Slunečnu ⛅ zatím nenašli:
⭐ Přidat Slunečno.cz do oblíbených | 🏠 Nastavit Slunečno.cz jako HOMEPAGE

⬆️ Posunout stránku nahoru ⬆️
Reklama